Time;durP1;ratioP1;P1;durP2;ratioP2;P2;SDS_P1;SDS_P2;PMS_P1;PMS_P2;Temp;Humidity;BMP_temperature;BMP_pressure;BME280_temperature;BME280_humidity;BME280_pressure;Samples;Min_cycle;Max_cycle;Signal;HPM_P1;HPM_P2
2022/03/25 00:02:04;;;;;;;3.72;2.30;;;1.70;99.90;;;;;;4975161;28;20089;-72
2022/03/25 00:04:30;;;;;;;6.85;2.60;;;1.70;99.90;;;;;;4975765;28;20027;-72
2022/03/25 00:06:56;;;;;;;3.15;2.45;;;1.70;99.90;;;;;;4975303;28;20517;-72
2022/03/25 00:09:22;;;;;;;2.38;2.17;;;1.70;99.90;;;;;;4975669;28;20015;-72
2022/03/25 00:11:47;;;;;;;4.72;2.53;;;1.70;99.90;;;;;;4975494;28;20467;-72
2022/03/25 00:14:14;;;;;;;5.35;2.90;;;1.70;99.90;;;;;;4975355;28;20019;-72
2022/03/25 00:16:41;;;;;;;2.92;2.45;;;1.70;99.90;;;;;;4975455;28;20058;-72
2022/03/25 00:19:07;;;;;;;3.65;2.60;;;1.70;99.90;;;;;;4975042;28;20027;-72
2022/03/25 00:21:32;;;;;;;3.50;2.30;;;1.70;99.90;;;;;;4975093;28;20045;-72
2022/03/25 00:23:58;;;;;;;3.13;2.28;;;1.70;99.90;;;;;;4975028;28;20111;-72
2022/03/25 00:26:24;;;;;;;3.40;2.58;;;1.70;99.90;;;;;;4975009;28;20023;-72
2022/03/25 00:28:50;;;;;;;2.47;2.28;;;1.80;99.90;;;;;;4975018;28;20029;-72
2022/03/25 00:31:16;;;;;;;3.53;2.63;;;1.80;99.90;;;;;;4974729;28;20026;-72
2022/03/25 00:33:43;;;;;;;4.00;2.40;;;1.80;99.90;;;;;;4975152;28;20026;-72
2022/03/25 00:36:12;;;;;;;3.38;2.55;;;1.80;99.90;;;;;;4974629;28;20027;-72
2022/03/25 00:38:38;;;;;;;3.55;2.45;;;1.80;99.90;;;;;;4974560;28;20053;-72
2022/03/25 00:41:06;;;;;;;4.32;2.40;;;1.80;99.90;;;;;;4974547;28;20038;-72
2022/03/25 00:43:34;;;;;;;4.68;2.50;;;1.80;99.90;;;;;;4973300;28;20474;-72
2022/03/25 00:46:00;;;;;;;2.45;2.25;;;1.80;99.90;;;;;;4974792;28;20110;-72
2022/03/25 00:48:27;;;;;;;3.97;2.88;;;1.80;99.90;;;;;;4974413;28;20130;-72
2022/03/25 00:50:54;;;;;;;3.47;2.63;;;1.80;99.90;;;;;;4974864;28;20066;-72
2022/03/25 00:53:19;;;;;;;4.97;2.85;;;1.80;99.90;;;;;;4974544;28;20067;-72
2022/03/25 00:55:45;;;;;;;3.65;2.63;;;1.80;99.90;;;;;;4974385;28;20054;-72
2022/03/25 00:58:11;;;;;;;2.80;2.28;;;1.70;99.90;;;;;;4974287;28;20074;-72
2022/03/25 01:00:37;;;;;;;2.60;2.28;;;1.70;99.90;;;;;;4974552;28;20088;-75
2022/03/25 01:03:03;;;;;;;2.65;2.45;;;1.70;99.90;;;;;;4974429;28;20058;-75
2022/03/25 01:05:29;;;;;;;2.55;2.30;;;1.70;99.90;;;;;;4974383;28;20061;-72
2022/03/25 01:07:55;;;;;;;4.82;2.38;;;1.70;99.90;;;;;;4974242;28;20039;-73
2022/03/25 01:10:23;;;;;;;2.70;2.08;;;1.70;99.90;;;;;;4974165;28;20096;-73
2022/03/25 01:12:49;;;;;;;3.53;2.35;;;1.70;99.90;;;;;;4974178;28;20022;-74
2022/03/25 01:15:15;;;;;;;3.13;2.50;;;1.70;99.90;;;;;;4974024;28;20169;-74
2022/03/25 01:17:40;;;;;;;4.13;2.65;;;1.80;99.90;;;;;;4974345;28;20121;-74
2022/03/25 01:20:09;;;;;;;3.20;2.45;;;1.70;99.90;;;;;;4974047;28;20475;-74
2022/03/25 01:22:34;;;;;;;3.30;2.35;;;1.70;99.90;;;;;;4973991;28;20065;-74
2022/03/25 01:25:02;;;;;;;2.60;2.40;;;1.70;99.90;;;;;;4973872;28;20474;-74
2022/03/25 01:27:28;;;;;;;2.67;2.47;;;1.80;99.90;;;;;;4973880;28;20031;-73
2022/03/25 01:29:54;;;;;;;2.95;2.65;;;1.80;99.90;;;;;;4974173;28;20135;-73
2022/03/25 01:32:20;;;;;;;4.97;2.42;;;1.80;99.90;;;;;;4973700;28;20497;-73
2022/03/25 01:34:46;;;;;;;4.18;2.80;;;1.80;99.90;;;;;;4973735;28;20035;-74
2022/03/25 01:37:12;;;;;;;4.32;2.50;;;1.80;99.90;;;;;;4973294;28;20046;-73
2022/03/25 01:39:37;;;;;;;5.38;2.55;;;1.80;99.90;;;;;;4973718;28;20067;-73
2022/03/25 01:42:03;;;;;;;2.92;2.55;;;1.80;99.90;;;;;;4973358;28;20043;-73
2022/03/25 01:44:30;;;;;;;3.22;2.67;;;1.80;99.90;;;;;;4973617;28;20030;-73
2022/03/25 01:46:58;;;;;;;3.13;2.53;;;1.70;99.90;;;;;;4973487;28;20041;-75
2022/03/25 01:49:24;;;;;;;3.65;2.75;;;1.70;99.90;;;;;;4973482;28;20497;-75
2022/03/25 01:51:52;;;;;;;4.43;2.40;;;1.70;99.90;;;;;;4973765;28;20035;-75
2022/03/25 01:54:18;;;;;;;4.25;2.45;;;1.70;99.90;;;;;;4973464;28;20078;-74
2022/03/25 01:56:44;;;;;;;3.78;2.67;;;1.70;99.90;;;;;;4973281;28;20035;-74
2022/03/25 01:59:10;;;;;;;4.22;2.80;;;1.70;99.90;;;;;;4973420;28;20026;-79
2022/03/25 02:01:40;;;;;;;5.80;2.33;;;1.80;99.90;;;;;;4973236;28;20034;-74
2022/03/25 02:04:06;;;;;;;2.85;2.55;;;1.80;99.90;;;;;;4973532;28;20034;-74
2022/03/25 02:06:32;;;;;;;2.90;2.60;;;1.80;99.90;;;;;;4973324;28;20030;-74
2022/03/25 02:08:57;;;;;;;2.88;2.67;;;1.80;99.90;;;;;;4973275;28;20098;-74
2022/03/25 02:11:23;;;;;;;4.82;2.67;;;1.80;99.90;;;;;;4973097;28;20031;-74
2022/03/25 02:13:49;;;;;;;3.15;2.30;;;1.80;99.90;;;;;;4973424;28;20035;-74
2022/03/25 02:16:14;;;;;;;3.30;2.60;;;1.80;99.90;;;;;;4972900;28;20452;-74
2022/03/25 02:18:40;;;;;;;2.45;2.25;;;1.80;99.90;;;;;;4973379;28;20031;-74
2022/03/25 02:21:06;;;;;;;3.35;2.50;;;1.80;99.90;;;;;;4972931;28;20383;-74
2022/03/25 02:23:31;;;;;;;2.58;2.38;;;1.80;99.90;;;;;;4973186;28;20030;-74
2022/03/25 02:55:01;;;;;;;2.63;2.42;;;1.80;99.90;;;;;;4971132;28;20089;-78
2022/03/25 02:57:27;;;;;;;2.70;2.50;;;1.80;99.90;;;;;;4972817;28;20026;-77
2022/03/25 02:59:53;;;;;;;3.88;2.60;;;1.80;99.90;;;;;;4972930;28;20054;-78
2022/03/25 03:02:19;;;;;;;3.25;2.33;;;1.90;99.90;;;;;;4972735;28;20124;-76
2022/03/25 03:38:24;;;;;;;2.95;2.25;;;1.80;99.90;;;;;;5429911;23;20084;-73
2022/03/25 03:40:50;;;;;;;2.50;2.22;;;1.80;99.90;;;;;;4994979;28;20065;-73
2022/03/25 03:43:16;;;;;;;4.38;2.40;;;1.80;99.90;;;;;;4995260;28;20026;-74
2022/03/25 03:45:42;;;;;;;3.53;2.13;;;1.90;99.90;;;;;;4995337;28;20022;-74
2022/03/25 03:48:07;;;;;;;2.03;1.83;;;1.90;99.90;;;;;;4995406;28;20473;-74
2022/03/25 03:50:33;;;;;;;2.72;1.85;;;1.90;99.90;;;;;;4995319;28;20026;-75
2022/03/25 03:52:59;;;;;;;2.45;2.10;;;1.90;99.90;;;;;;4995119;28;20156;-75
2022/03/25 03:55:25;;;;;;;2.00;1.65;;;2.00;99.90;;;;;;4993931;28;20077;-76
2022/03/25 03:57:50;;;;;;;2.22;1.80;;;1.90;99.90;;;;;;4994947;28;20109;-76
2022/03/25 04:00:16;;;;;;;4.53;2.50;;;1.90;99.90;;;;;;4995277;28;20034;-76
2022/03/25 04:02:44;;;;;;;2.30;2.10;;;1.90;99.90;;;;;;4994738;28;20034;-75
2022/03/25 04:05:13;;;;;;;2.60;2.00;;;1.90;99.90;;;;;;4995257;28;20050;-75
2022/03/25 04:07:40;;;;;;;2.00;1.80;;;2.00;99.90;;;;;;4994572;28;20022;-75
2022/03/25 04:10:06;;;;;;;5.97;2.30;;;2.00;99.90;;;;;;4994796;28;20027;-75
2022/03/25 04:12:32;;;;;;;5.45;2.55;;;2.00;99.90;;;;;;4994924;28;20030;-75
2022/03/25 04:14:58;;;;;;;4.45;2.28;;;2.00;99.90;;;;;;4994652;28;20592;-75
2022/03/25 04:17:25;;;;;;;3.38;2.08;;;1.90;99.90;;;;;;4994698;28;20027;-75
2022/03/25 04:19:51;;;;;;;3.55;2.30;;;1.90;99.90;;;;;;4994435;28;20101;-75
2022/03/25 04:22:17;;;;;;;3.53;2.40;;;1.90;99.90;;;;;;4994504;28;20042;-75
2022/03/25 04:24:43;;;;;;;3.67;2.15;;;1.90;99.90;;;;;;4994257;28;20031;-75
2022/03/25 04:27:09;;;;;;;2.50;1.90;;;1.90;99.90;;;;;;4993145;28;20154;-75
2022/03/25 04:29:34;;;;;;;2.50;2.10;;;1.90;99.90;;;;;;4994211;28;20022;-75
2022/03/25 04:32:00;;;;;;;4.57;2.33;;;1.90;99.90;;;;;;4994439;28;20033;-75
2022/03/25 04:34:26;;;;;;;2.78;2.00;;;1.90;99.90;;;;;;4994267;28;20026;-75
2022/03/25 04:36:52;;;;;;;2.13;1.90;;;2.00;99.90;;;;;;4993046;28;20030;-75
2022/03/25 04:39:18;;;;;;;3.13;2.10;;;2.00;99.90;;;;;;4993559;28;20069;-75
2022/03/25 04:41:44;;;;;;;8.80;2.03;;;2.00;99.90;;;;;;4994262;28;20125;-75
2022/03/25 04:44:09;;;;;;;4.63;2.15;;;2.00;99.90;;;;;;4994301;28;20138;-75
2022/03/25 04:46:35;;;;;;;4.32;2.40;;;2.10;99.90;;;;;;4994364;28;20029;-77
2022/03/25 04:49:01;;;;;;;2.78;2.20;;;2.10;99.90;;;;;;4994120;28;20113;-75
2022/03/25 04:51:27;;;;;;;4.13;2.20;;;2.00;99.90;;;;;;4994124;28;20018;-75
2022/03/25 04:53:52;;;;;;;3.80;2.22;;;2.10;99.90;;;;;;4994029;28;20405;-75
2022/03/25 04:56:18;;;;;;;2.85;2.00;;;2.10;99.90;;;;;;4994012;28;20026;-75
2022/03/25 04:58:44;;;;;;;3.33;2.20;;;2.10;99.90;;;;;;4993696;28;20033;-77
2022/03/25 05:01:10;;;;;;;5.63;1.98;;;2.10;99.90;;;;;;4994022;28;20046;-78
2022/03/25 05:03:36;;;;;;;4.03;2.20;;;2.10;99.90;;;;;;4993774;28;20030;-75
2022/03/25 05:06:01;;;;;;;2.95;2.08;;;2.10;99.90;;;;;;4994050;28;20405;-75
2022/03/25 05:08:27;;;;;;;3.25;2.15;;;2.10;99.90;;;;;;4993607;28;20038;-75
2022/03/25 05:10:53;;;;;;;2.88;2.35;;;2.10;99.90;;;;;;4993776;28;20337;-75
2022/03/25 05:13:19;;;;;;;2.60;2.00;;;2.20;99.90;;;;;;4993449;28;20069;-75
2022/03/25 05:15:45;;;;;;;1.73;1.63;;;2.20;99.90;;;;;;4993377;28;20019;-75
2022/03/25 05:18:11;;;;;;;3.35;1.98;;;2.20;99.90;;;;;;4993454;28;20023;-75
2022/03/25 05:20:37;;;;;;;4.20;2.10;;;2.20;99.90;;;;;;4993247;28;20494;-75
2022/03/25 05:23:03;;;;;;;5.47;2.67;;;2.20;99.90;;;;;;4993169;28;20142;-75
2022/03/25 05:25:29;;;;;;;2.53;2.10;;;2.20;99.90;;;;;;4993319;28;20486;-76
2022/03/25 05:27:58;;;;;;;4.78;2.30;;;2.20;99.90;;;;;;4993442;28;20473;-76
2022/03/25 05:30:29;;;;;;;5.70;2.08;;;2.20;99.90;;;;;;4993104;28;20432;-77
2022/03/25 05:32:56;;;;;;;3.50;1.90;;;2.30;99.90;;;;;;4992996;28;20022;-76
2022/03/25 05:35:23;;;;;;;6.78;2.47;;;2.30;99.90;;;;;;4993232;28;20109;-72
2022/03/25 05:37:49;;;;;;;9.40;2.40;;;2.30;99.90;;;;;;4992762;28;20042;-69
2022/03/25 05:40:17;;;;;;;6.22;2.55;;;2.40;99.90;;;;;;4993091;28;20026;-73
2022/03/25 05:42:43;;;;;;;5.07;2.40;;;2.40;99.90;;;;;;4991463;28;20062;-72
2022/03/25 05:45:09;;;;;;;2.22;2.00;;;2.50;99.90;;;;;;4992787;28;20066;-71
2022/03/25 05:47:37;;;;;;;4.13;2.30;;;2.50;99.90;;;;;;4992696;28;20117;-71
2022/03/25 05:50:04;;;;;;;4.93;2.70;;;2.50;99.90;;;;;;4991209;28;20018;-73
2022/03/25 05:52:30;;;;;;;5.53;3.00;;;2.50;99.90;;;;;;4983207;28;20073;-70
2022/03/25 05:54:56;;;;;;;11.43;3.47;;;2.50;99.90;;;;;;4983560;28;20445;-75
2022/03/25 05:57:22;;;;;;;8.32;3.13;;;2.50;99.90;;;;;;4978419;28;20044;-75
2022/03/25 05:59:48;;;;;;;4.68;2.30;;;2.50;99.90;;;;;;4980441;28;20477;-74
2022/03/25 06:02:14;;;;;;;3.88;2.45;;;2.50;99.90;;;;;;4984225;28;20389;-70
2022/03/25 06:04:40;;;;;;;4.18;3.00;;;2.50;99.90;;;;;;4983954;28;20027;-73
2022/03/25 06:07:06;;;;;;;5.25;2.40;;;2.50;99.90;;;;;;4978305;28;20509;-72
2022/03/25 06:09:32;;;;;;;7.30;3.35;;;2.60;99.90;;;;;;4981060;28;20054;-70
2022/03/25 06:11:58;;;;;;;4.93;2.33;;;2.60;99.90;;;;;;4975748;28;20062;-69
2022/03/25 06:14:25;;;;;;;4.07;3.03;;;2.60;99.90;;;;;;4986769;28;20023;-69
2022/03/25 06:16:51;;;;;;;8.15;3.40;;;2.50;99.90;;;;;;4979939;28;20034;-69
2022/03/25 06:19:17;;;;;;;7.00;3.20;;;2.50;99.90;;;;;;4978188;28;20035;-70
2022/03/25 06:21:44;;;;;;;3.78;2.88;;;2.50;99.90;;;;;;4974196;28;20038;-69
2022/03/25 06:24:10;;;;;;;6.20;2.70;;;2.50;99.90;;;;;;4973371;28;20429;-71
2022/03/25 06:26:36;;;;;;;7.35;2.63;;;2.50;99.90;;;;;;4973236;28;20030;-71
2022/03/25 06:29:03;;;;;;;6.43;2.50;;;2.50;99.90;;;;;;4972951;28;20027;-72
2022/03/25 06:31:29;;;;;;;7.50;2.97;;;2.60;99.90;;;;;;4973023;28;20027;-77
2022/03/25 06:33:55;;;;;;;4.30;3.03;;;2.70;99.90;;;;;;4972919;28;20031;-71
2022/03/25 06:36:20;;;;;;;4.80;2.85;;;2.70;99.90;;;;;;4971873;28;20110;-69
2022/03/25 06:38:46;;;;;;;5.45;2.90;;;2.70;99.90;;;;;;4977522;28;20132;-69
2022/03/25 06:41:13;;;;;;;8.05;2.92;;;2.70;99.90;;;;;;4981472;28;20031;-69
2022/03/25 06:43:39;;;;;;;5.50;2.78;;;2.70;99.90;;;;;;4982854;28;20053;-69
2022/03/25 06:46:05;;;;;;;5.07;2.78;;;2.70;99.90;;;;;;4982778;28;20463;-70
2022/03/25 06:48:32;;;;;;;4.97;2.80;;;2.70;99.90;;;;;;4981057;28;20050;-69
2022/03/25 06:50:59;;;;;;;4.90;2.95;;;2.80;99.90;;;;;;4975265;28;20109;-69
2022/03/25 06:53:28;;;;;;;6.22;3.03;;;2.80;99.90;;;;;;4972764;28;20487;-70
2022/03/25 06:55:55;;;;;;;5.45;2.80;;;2.80;99.90;;;;;;4972988;28;20501;-71
2022/03/25 06:58:21;;;;;;;6.18;3.20;;;2.90;99.90;;;;;;4991302;28;20113;-71
2022/03/25 07:00:47;;;;;;;6.43;3.10;;;2.90;99.90;;;;;;4991949;28;20170;-72
2022/03/25 07:03:14;;;;;;;4.93;2.70;;;2.90;99.90;;;;;;4993463;28;20109;-74
2022/03/25 07:05:40;;;;;;;2.72;1.70;;;2.80;99.90;;;;;;4996100;28;20026;-67
2022/03/25 07:08:07;;;;;;;4.20;2.88;;;2.90;99.90;;;;;;4992713;28;20490;-73
2022/03/25 07:10:33;;;;;;;4.65;2.95;;;4.10;99.90;;;;;;4995352;28;20027;-71
2022/03/25 07:12:59;;;;;;;7.93;3.30;;;4.20;99.90;;;;;;4995978;28;20042;-75
2022/03/25 07:15:25;;;;;;;4.20;3.20;;;4.00;99.90;;;;;;4995672;28;20149;-72
2022/03/25 07:17:54;;;;;;;6.22;3.60;;;3.80;99.90;;;;;;4995256;28;20025;-69
2022/03/25 07:20:22;;;;;;;5.43;3.47;;;3.60;99.90;;;;;;4984768;28;20041;-68
2022/03/25 07:22:50;;;;;;;4.68;3.50;;;3.60;99.90;;;;;;4980099;28;20047;-69
2022/03/25 07:25:17;;;;;;;3.22;2.70;;;3.60;99.90;;;;;;4989809;28;20034;-68
2022/03/25 07:27:44;;;;;;;3.85;2.60;;;3.50;99.90;;;;;;4995684;28;20054;-68
2022/03/25 07:30:11;;;;;;;4.35;3.35;;;3.40;99.90;;;;;;4995675;28;20026;-68
2022/03/25 07:32:38;;;;;;;3.53;2.88;;;3.40;99.90;;;;;;4995484;28;20034;-68
2022/03/25 07:35:04;;;;;;;4.88;3.00;;;3.30;99.90;;;;;;4995260;28;20105;-68
2022/03/25 07:37:30;;;;;;;5.03;3.03;;;3.30;99.90;;;;;;4995013;28;20536;-72
2022/03/25 07:39:55;;;;;;;5.70;3.20;;;3.30;99.90;;;;;;4986678;28;20031;-76
2022/03/25 07:42:21;;;;;;;4.88;3.35;;;3.30;99.90;;;;;;4976051;28;20363;-73
2022/03/25 07:44:47;;;;;;;3.75;3.10;;;3.30;99.90;;;;;;4975426;28;20027;-72
2022/03/25 07:47:14;;;;;;;3.30;2.78;;;3.30;99.90;;;;;;4993686;28;20026;-68
2022/03/25 07:49:40;;;;;;;3.75;2.78;;;3.30;99.90;;;;;;4994920;28;20019;-68
2022/03/25 07:52:10;;;;;;;7.15;3.13;;;3.30;99.90;;;;;;4990731;28;20030;-68
2022/03/25 07:54:37;;;;;;;5.45;3.17;;;3.30;99.90;;;;;;4993673;28;20346;-68
2022/03/25 07:57:03;;;;;;;4.18;3.35;;;3.30;99.90;;;;;;4994478;28;20517;-71
2022/03/25 07:59:30;;;;;;;3.00;2.53;;;3.30;99.90;;;;;;4994492;28;20069;-74
2022/03/25 08:01:56;;;;;;;5.28;3.00;;;3.30;99.90;;;;;;4994560;28;20041;-71
2022/03/25 08:04:24;;;;;;;5.22;3.40;;;3.30;99.90;;;;;;4993406;28;20030;-71
2022/03/25 08:06:51;;;;;;;3.58;3.28;;;3.40;99.90;;;;;;4994661;28;20112;-71
2022/03/25 08:09:17;;;;;;;3.35;2.90;;;3.40;99.90;;;;;;4995024;28;20037;-73
2022/03/25 08:11:45;;;;;;;2.80;2.60;;;3.40;99.90;;;;;;4994768;28;20026;-73
2022/03/25 08:14:12;;;;;;;4.10;2.85;;;3.40;99.90;;;;;;4994366;28;20022;-75
2022/03/25 08:16:38;;;;;;;11.80;3.88;;;3.70;99.90;;;;;;4994700;28;20022;-76
2022/03/25 08:19:05;;;;;;;5.53;3.13;;;3.80;99.90;;;;;;4994766;28;20030;-74
2022/03/25 08:21:31;;;;;;;3.85;3.03;;;3.90;99.90;;;;;;4994834;28;20401;-71
2022/03/25 08:29:25;;;;;;;3.13;2.75;;;4.90;99.90;;;;;;4991648;28;20074;-68
2022/03/25 08:31:51;;;;;;;3.50;2.70;;;5.70;99.90;;;;;;4990143;28;20508;-69
2022/03/25 08:34:17;;;;;;;3.00;2.20;;;6.10;99.90;;;;;;4985093;28;20022;-69
2022/03/25 08:36:45;;;;;;;2.97;2.67;;;6.40;99.90;;;;;;4987960;28;20501;-69
2022/03/25 08:39:11;;;;;;;3.05;2.50;;;6.70;99.90;;;;;;4987814;28;20094;-68
2022/03/25 08:41:37;;;;;;;2.85;2.25;;;6.90;99.90;;;;;;4979920;28;20070;-68
2022/03/25 08:44:04;;;;;;;3.15;2.38;;;7.10;99.90;;;;;;4974549;28;20426;-68
2022/03/25 08:46:29;;;;;;;2.67;2.47;;;7.10;99.90;;;;;;4974912;28;20031;-70
2022/03/25 08:48:55;;;;;;;2.72;2.38;;;7.10;99.90;;;;;;4978851;28;20034;-69
2022/03/25 08:51:21;;;;;;;6.72;1.73;;;7.10;99.90;;;;;;4975734;28;20411;-69
2022/03/25 08:53:47;;;;;;;2.20;2.00;;;7.20;99.90;;;;;;4979849;28;20045;-69
2022/03/25 08:56:13;;;;;;;4.50;2.67;;;8.10;99.90;;;;;;4994203;28;20049;-73
2022/03/25 08:58:40;;;;;;;2.20;1.98;;;8.00;99.90;;;;;;4994132;28;20034;-69
2022/03/25 09:01:06;;;;;;;2.08;1.67;;;7.80;99.90;;;;;;4993971;28;20050;-69
2022/03/25 09:03:32;;;;;;;1.40;1.20;;;7.70;99.90;;;;;;4994123;28;20058;-69
2022/03/25 09:05:58;;;;;;;0.90;0.90;;;7.70;99.90;;;;;;4993855;28;20030;-69
2022/03/25 09:08:24;;;;;;;1.00;1.00;;;7.50;99.90;;;;;;4993977;28;20073;-68
2022/03/25 09:10:53;;;;;;;0.90;0.90;;;7.60;99.90;;;;;;4993304;28;20027;-69
2022/03/25 09:13:19;;;;;;;1.15;0.90;;;7.80;99.90;;;;;;4993432;28;20161;-70
2022/03/25 09:15:46;;;;;;;1.10;1.00;;;7.80;99.90;;;;;;4993772;28;20033;-69
2022/03/25 09:18:12;;;;;;;0.98;0.90;;;7.80;99.90;;;;;;4992353;28;20164;-70
2022/03/25 09:20:39;;;;;;;0.80;0.80;;;7.90;99.90;;;;;;4993528;28;20101;-70
2022/03/25 09:23:05;;;;;;;0.80;0.80;;;7.80;99.90;;;;;;4993175;28;20556;-69
2022/03/25 09:25:31;;;;;;;2.42;0.80;;;7.90;99.90;;;;;;4991806;28;20475;-68
2022/03/25 09:27:57;;;;;;;0.70;0.70;;;8.10;99.90;;;;;;4993258;28;20073;-68
2022/03/25 09:30:23;;;;;;;0.60;0.60;;;7.90;99.90;;;;;;4993134;28;20022;-67
2022/03/25 09:32:49;;;;;;;0.70;0.70;;;7.70;99.90;;;;;;4992921;28;20034;-68
2022/03/25 09:35:16;;;;;;;0.70;0.70;;;7.50;99.90;;;;;;4993367;28;20022;-68
2022/03/25 09:37:47;;;;;;;0.80;0.75;;;7.30;99.90;;;;;;4993108;28;20433;-68
2022/03/25 09:40:18;;;;;;;0.73;0.70;;;7.10;99.90;;;;;;4993106;28;20033;-70
2022/03/25 09:42:45;;;;;;;0.63;0.63;;;7.00;99.90;;;;;;4993280;28;20032;-70
2022/03/25 09:45:13;;;;;;;0.85;0.85;;;6.70;99.90;;;;;;4992861;28;20033;-69
2022/03/25 09:47:39;;;;;;;0.80;0.80;;;6.30;99.90;;;;;;4993090;28;20026;-70
2022/03/25 09:50:08;;;;;;;0.70;0.70;;;5.90;99.90;;;;;;4992690;28;20023;-72
2022/03/25 09:52:34;;;;;;;0.90;0.80;;;5.60;99.90;;;;;;4992864;28;20018;-71
2022/03/25 09:55:01;;;;;;;0.85;0.85;;;5.70;99.90;;;;;;4993066;28;20117;-72
2022/03/25 09:57:28;;;;;;;1.00;0.90;;;5.70;99.90;;;;;;4989277;28;20579;-71
2022/03/25 09:59:54;;;;;;;1.15;1.05;;;5.60;99.90;;;;;;4983380;28;20062;-71
2022/03/25 10:02:20;;;;;;;1.30;1.20;;;5.40;99.90;;;;;;4983648;28;20058;-70
2022/03/25 10:04:48;;;;;;;2.80;1.20;;;5.30;99.90;;;;;;4982645;28;20435;-67
2022/03/25 10:07:24;;;;;;;1.95;1.10;;;7.50;99.90;;;;;;4981567;28;20029;-67
2022/03/25 10:10:05;;;;;;;0.75;0.75;;;8.50;99.90;;;;;;4982899;28;20439;-66
2022/03/25 10:12:31;;;;;;;0.80;0.80;;;7.50;99.90;;;;;;4982972;28;20537;-66
2022/03/25 10:15:23;;;;;;;1.13;1.02;;;7.10;99.90;;;;;;4981226;28;20031;-66
2022/03/25 10:18:00;;;;;;;2.53;1.10;;;6.60;99.90;;;;;;4982444;28;20562;-66
2022/03/25 10:20:30;;;;;;;1.65;1.05;;;6.10;99.90;;;;;;4982971;28;20061;-66
2022/03/25 10:23:20;;;;;;;1.20;1.10;;;5.80;99.90;;;;;;4983214;28;20506;-68
2022/03/25 10:25:50;;;;;;;1.05;0.98;;;5.60;99.90;;;;;;4974525;28;20559;-66
2022/03/25 10:28:36;;;;;;;1.52;1.35;;;5.40;99.90;;;;;;4986032;28;20054;-68
2022/03/25 10:31:05;;;;;;;2.45;1.15;;;5.30;99.90;;;;;;4981927;28;20195;-68
2022/03/25 10:33:34;;;;;;;3.50;1.30;;;5.30;99.90;;;;;;4982248;28;20382;-68
2022/03/25 10:36:08;;;;;;;1.17;1.08;;;5.20;99.90;;;;;;4986668;28;20026;-68
2022/03/25 10:39:13;;;;;;;1.20;1.10;;;5.10;99.90;;;;;;4994233;28;20403;-68
2022/03/25 10:41:49;;;;;;;4.20;1.45;;;5.10;99.90;;;;;;4966499;28;20078;-67
2022/03/25 10:44:15;;;;;;;1.50;1.27;;;5.00;99.90;;;;;;4996307;28;20113;-68
2022/03/25 10:46:46;;;;;;;2.17;1.10;;;4.90;99.90;;;;;;4986760;28;20159;-67
2022/03/25 10:49:17;;;;;;;2.17;1.27;;;4.90;99.90;;;;;;4990716;28;20034;-71
2022/03/25 10:52:04;;;;;;;1.25;1.10;;;4.90;99.90;;;;;;4996221;28;20045;-67
2022/03/25 10:54:30;;;;;;;1.33;1.23;;;5.00;99.90;;;;;;4981904;28;20373;-67
2022/03/25 10:56:59;;;;;;;1.58;1.25;;;4.90;99.90;;;;;;4986668;28;20042;-67
2022/03/25 10:59:26;;;;;;;2.00;1.40;;;4.80;99.90;;;;;;4983989;28;20046;-67
2022/03/25 11:01:56;;;;;;;1.88;1.10;;;4.80;99.90;;;;;;4981368;28;20035;-67
2022/03/25 11:04:22;;;;;;;1.30;1.20;;;4.80;99.90;;;;;;4978519;28;20034;-67
2022/03/25 11:06:49;;;;;;;2.10;1.70;;;4.80;99.90;;;;;;4986332;28;20026;-67
2022/03/25 11:09:16;;;;;;;1.50;1.40;;;4.80;99.90;;;;;;4984509;28;20038;-67
2022/03/25 11:11:46;;;;;;;1.55;1.27;;;4.80;99.90;;;;;;4984543;28;20030;-67
2022/03/25 11:14:12;;;;;;;1.50;1.40;;;4.90;99.90;;;;;;4986148;28;20026;-67
2022/03/25 11:16:41;;;;;;;1.80;1.65;;;4.90;99.90;;;;;;4984673;28;20019;-68
2022/03/25 11:19:11;;;;;;;2.60;1.80;;;4.90;99.90;;;;;;4986828;28;20026;-68
2022/03/25 11:21:44;;;;;;;;;;;5.30;99.90;;;;;;4991317;28;20034;-68
2022/03/25 11:24:19;;;;;;;1.55;1.45;;;5.50;99.90;;;;;;4995447;28;19905;-67
2022/03/25 11:26:47;;;;;;;2.33;2.00;;;5.50;99.90;;;;;;4995512;28;20026;-68
2022/03/25 11:29:16;;;;;;;2.53;1.73;;;5.30;99.90;;;;;;4992337;28;20030;-68
2022/03/25 11:32:06;;;;;;;1.65;1.55;;;5.10;99.90;;;;;;4990578;28;20019;-68
2022/03/25 11:34:38;;;;;;;1.98;1.77;;;5.00;99.90;;;;;;4976283;28;20038;-68
2022/03/25 11:37:27;;;;;;;1.92;1.80;;;4.90;99.90;;;;;;4975954;28;20034;-68
2022/03/25 11:40:14;;;;;;;1.65;1.55;;;4.90;99.90;;;;;;4978735;28;20042;-66
2022/03/25 11:42:44;;;;;;;2.00;1.80;;;4.80;99.90;;;;;;4989824;28;20490;-66
2022/03/25 11:45:37;;;;;;;1.75;1.65;;;4.70;99.90;;;;;;4975909;28;20422;-66
2022/03/25 11:48:06;;;;;;;1.75;1.65;;;4.70;99.90;;;;;;4972802;28;20035;-66
2022/03/25 11:50:39;;;;;;;1.90;1.70;;;4.70;99.90;;;;;;4985753;28;20023;-66
2022/03/25 11:53:10;;;;;;;1.60;1.50;;;4.70;99.90;;;;;;4994780;28;20054;-64
2022/03/25 11:55:55;;;;;;;2.42;2.10;;;4.80;99.90;;;;;;4995275;28;20477;-65
2022/03/25 11:58:21;;;;;;;2.10;1.90;;;5.00;99.90;;;;;;4980294;28;20073;-65
2022/03/25 12:00:54;;;;;;;1.80;1.50;;;4.80;99.90;;;;;;4992274;28;20030;-65
2022/03/25 12:03:20;;;;;;;2.30;2.10;;;4.70;99.90;;;;;;4994807;28;20038;-65
2022/03/25 12:06:00;;;;;;;1.83;1.70;;;4.60;99.90;;;;;;4994787;28;20061;-66
2022/03/25 12:08:32;;;;;;;2.07;1.87;;;4.60;99.90;;;;;;4983537;28;20022;-66
2022/03/25 12:11:03;;;;;;;1.80;1.70;;;4.50;99.90;;;;;;4985702;28;20290;-66
2022/03/25 12:13:50;;;;;;;2.55;2.25;;;4.40;99.90;;;;;;4986745;28;20490;-66
2022/03/25 12:16:44;;;;;;;2.90;2.38;;;4.30;99.90;;;;;;4991569;28;20026;-66
2022/03/25 12:19:28;;;;;;;2.92;2.42;;;4.30;99.90;;;;;;4994534;28;20018;-66
2022/03/25 12:22:19;;;;;;;7.28;3.53;;;4.30;99.90;;;;;;4994599;28;20034;-66
2022/03/25 12:24:50;;;;;;;2.30;2.10;;;4.40;99.90;;;;;;4984432;28;20027;-68
2022/03/25 12:27:16;;;;;;;2.67;2.13;;;5.30;99.90;;;;;;4977548;28;20398;-68
2022/03/25 12:29:48;;;;;;;2.55;2.30;;;5.10;99.90;;;;;;4981453;28;20030;-68
2022/03/25 12:32:16;;;;;;;2.97;2.70;;;5.00;99.90;;;;;;4986724;28;20070;-68
2022/03/25 12:35:05;;;;;;;4.95;2.95;;;4.90;99.90;;;;;;4974847;28;20073;-68
2022/03/25 12:37:39;;;;;;;3.58;3.00;;;4.80;99.90;;;;;;4974700;28;20516;-68
2022/03/25 12:40:27;;;;;;;3.85;3.40;;;4.70;99.90;;;;;;4993219;28;20038;-68
2022/03/25 12:42:58;;;;;;;2.83;2.38;;;4.70;99.90;;;;;;4994032;28;20141;-69
2022/03/25 12:45:35;;;;;;;2.22;2.03;;;4.70;99.90;;;;;;4993964;28;20023;-68
2022/03/25 12:48:09;;;;;;;2.40;2.20;;;4.60;99.90;;;;;;4993792;28;20381;-68
2022/03/25 12:50:35;;;;;;;3.90;2.80;;;4.50;99.90;;;;;;4986456;28;20069;-68
2022/03/25 12:53:02;;;;;;;3.20;2.90;;;4.50;99.90;;;;;;4974449;28;20030;-68
2022/03/25 12:55:29;;;;;;;6.35;2.88;;;4.60;99.90;;;;;;4974480;28;20054;-69
2022/03/25 12:58:12;;;;;;;5.20;2.95;;;5.00;99.90;;;;;;4985917;28;20381;-68
2022/03/25 13:00:44;;;;;;;5.03;3.38;;;5.10;99.90;;;;;;4993378;28;20028;-68
2022/03/25 13:03:11;;;;;;;3.15;2.70;;;5.00;99.90;;;;;;4993838;28;20134;-68
2022/03/25 13:05:38;;;;;;;6.90;3.42;;;4.90;99.90;;;;;;4993325;28;20433;-68
2022/03/25 13:08:05;;;;;;;4.47;3.05;;;4.80;99.90;;;;;;4993065;28;20482;-68
2022/03/25 13:10:31;;;;;;;3.90;3.15;;;4.70;99.90;;;;;;4975799;28;20039;-68
2022/03/25 13:13:07;;;;;;;3.45;2.58;;;4.70;99.90;;;;;;4974261;28;20057;-68
2022/03/25 13:15:39;;;;;;;5.20;3.15;;;4.70;99.90;;;;;;4989978;28;20081;-69
2022/03/25 13:18:08;;;;;;;3.15;2.70;;;4.60;99.90;;;;;;4993233;28;20061;-68
2022/03/25 13:20:40;;;;;;;3.13;2.83;;;4.50;99.90;;;;;;4993164;28;20089;-68
2022/03/25 13:23:10;;;;;;;5.60;3.17;;;4.40;99.90;;;;;;4985003;28;20375;-70
2022/03/25 13:25:46;;;;;;;6.13;3.10;;;4.50;99.90;;;;;;4974103;28;20051;-70
2022/03/25 13:28:22;;;;;;;3.97;3.08;;;4.60;99.90;;;;;;4974170;28;20031;-71
2022/03/25 13:30:50;;;;;;;11.65;3.90;;;5.00;99.90;;;;;;4974061;28;20412;-71
2022/03/25 13:33:22;;;;;;;6.55;3.20;;;4.80;99.90;;;;;;4973802;28;20015;-71
2022/03/25 13:35:56;;;;;;;4.15;3.40;;;4.60;99.90;;;;;;4972364;28;20024;-70
2022/03/25 13:38:51;;;;;;;3.40;2.53;;;4.60;99.90;;;;;;4973400;28;20046;-71
2022/03/25 13:41:25;;;;;;;5.30;3.47;;;4.50;99.90;;;;;;4972133;28;20486;-70
2022/03/25 13:43:54;;;;;;;5.07;3.70;;;4.40;99.90;;;;;;4973638;28;20525;-70
2022/03/25 13:46:31;;;;;;;5.82;4.10;;;4.50;99.90;;;;;;4973418;28;20022;-70
2022/03/25 13:49:00;;;;;;;5.95;3.50;;;4.50;99.90;;;;;;4973556;28;20041;-70
2022/03/25 13:51:28;;;;;;;5.13;3.22;;;4.40;99.90;;;;;;4973438;28;20034;-70
2022/03/25 13:54:02;;;;;;;6.28;3.60;;;4.40;99.90;;;;;;4973535;28;20557;-70
2022/03/25 13:56:55;;;;;;;2.92;1.23;;;4.30;99.90;;;;;;4973474;28;20110;-70
2022/03/25 13:59:44;;;;;;;4.75;3.17;;;7.10;99.90;;;;;;4971068;28;20074;-70
2022/03/25 14:02:22;;;;;;;3.58;3.13;;;7.50;99.90;;;;;;4973508;28;20037;-70
2022/03/25 14:04:48;;;;;;;3.65;3.33;;;6.60;99.90;;;;;;4974927;28;20385;-68
2022/03/25 14:07:18;;;;;;;3.50;3.20;;;5.90;99.90;;;;;;4971887;28;20026;-68
2022/03/25 14:09:52;;;;;;;8.65;3.90;;;5.50;99.90;;;;;;4971933;28;20031;-68
2022/03/25 14:12:23;;;;;;;6.40;5.40;;;5.30;99.90;;;;;;4972546;28;20078;-68
2022/03/25 14:15:01;;;;;;;7.18;5.43;;;5.00;99.90;;;;;;4973576;28;20023;-70